sensor_id;sensor_type;location;lat;lon;timestamp;pressure;altitude;pressure_sealevel;temperature;humidity
4705;BME280;2366;51.332;6.610;2023-07-24T00:00:37;100398.41;;;22.80;74.02
4705;BME280;2366;51.332;6.610;2023-07-24T00:03:04;100395.03;;;22.78;73.64
4705;BME280;2366;51.332;6.610;2023-07-24T00:05:30;100393.53;;;22.75;73.47
4705;BME280;2366;51.332;6.610;2023-07-24T00:07:55;100378.94;;;22.62;73.40
4705;BME280;2366;51.332;6.610;2023-07-24T00:10:21;100391.88;;;22.51;73.74
4705;BME280;2366;51.332;6.610;2023-07-24T00:12:46;100383.63;;;22.45;74.13
4705;BME280;2366;51.332;6.610;2023-07-24T00:15:11;100384.81;;;22.42;74.23
4705;BME280;2366;51.332;6.610;2023-07-24T00:17:37;100382.31;;;22.41;74.24
4705;BME280;2366;51.332;6.610;2023-07-24T00:20:02;100381.66;;;22.39;74.41
4705;BME280;2366;51.332;6.610;2023-07-24T00:22:27;100378.94;;;22.39;74.22
4705;BME280;2366;51.332;6.610;2023-07-24T00:24:53;100371.19;;;22.35;74.27
4705;BME280;2366;51.332;6.610;2023-07-24T00:27:18;100363.63;;;22.31;74.15
4705;BME280;2366;51.332;6.610;2023-07-24T00:29:43;100364.19;;;22.26;74.20
4705;BME280;2366;51.332;6.610;2023-07-24T00:32:09;100362.34;;;22.19;74.42
4705;BME280;2366;51.332;6.610;2023-07-24T00:34:34;100362.69;;;22.15;74.19
4705;BME280;2366;51.332;6.610;2023-07-24T00:36:59;100359.31;;;22.13;74.33
4705;BME280;2366;51.332;6.610;2023-07-24T00:39:25;100370.50;;;22.10;73.94
4705;BME280;2366;51.332;6.610;2023-07-24T00:41:53;100368.31;;;22.06;74.30
4705;BME280;2366;51.332;6.610;2023-07-24T00:44:19;100355.84;;;22.05;74.48
4705;BME280;2366;51.332;6.610;2023-07-24T00:46:44;100359.06;;;22.00;74.35
4705;BME280;2366;51.332;6.610;2023-07-24T00:49:10;100362.13;;;21.97;74.70
4705;BME280;2366;51.332;6.610;2023-07-24T00:51:35;100356.06;;;21.95;74.95
4705;BME280;2366;51.332;6.610;2023-07-24T00:54:02;100355.56;;;21.91;74.88
4705;BME280;2366;51.332;6.610;2023-07-24T00:56:30;100342.78;;;21.85;75.26
4705;BME280;2366;51.332;6.610;2023-07-24T00:58:56;100335.06;;;21.82;75.12
4705;BME280;2366;51.332;6.610;2023-07-24T01:01:22;100337.56;;;21.84;75.27
4705;BME280;2366;51.332;6.610;2023-07-24T01:03:48;100333.84;;;21.85;75.45
4705;BME280;2366;51.332;6.610;2023-07-24T01:06:14;100328.84;;;21.82;75.51
4705;BME280;2366;51.332;6.610;2023-07-24T01:08:39;100325.09;;;21.83;75.65
4705;BME280;2366;51.332;6.610;2023-07-24T01:11:24;100314.81;;;21.86;75.96
4705;BME280;2366;51.332;6.610;2023-07-24T01:14:21;100313.59;;;21.89;75.91
4705;BME280;2366;51.332;6.610;2023-07-24T01:16:48;100302.09;;;21.95;75.21
4705;BME280;2366;51.332;6.610;2023-07-24T01:22:14;100298.22;;;21.98;75.69
4705;BME280;2366;51.332;6.610;2023-07-24T01:27:43;100293.69;;;21.90;74.76
4705;BME280;2366;51.332;6.610;2023-07-24T01:30:09;100294.41;;;21.84;75.91
4705;BME280;2366;51.332;6.610;2023-07-24T01:32:34;100289.38;;;21.81;75.53
4705;BME280;2366;51.332;6.610;2023-07-24T01:35:00;100290.56;;;21.78;75.90
4705;BME280;2366;51.332;6.610;2023-07-24T01:37:26;100277.25;;;21.77;75.75
4705;BME280;2366;51.332;6.610;2023-07-24T01:39:53;100287.19;;;21.76;75.46
4705;BME280;2366;51.332;6.610;2023-07-24T01:42:20;100278.94;;;21.78;75.70
4705;BME280;2366;51.332;6.610;2023-07-24T01:44:51;100271.03;;;21.76;75.73
4705;BME280;2366;51.332;6.610;2023-07-24T01:47:17;100258.53;;;21.75;75.32
4705;BME280;2366;51.332;6.610;2023-07-24T01:49:42;100264.44;;;21.79;75.25
4705;BME280;2366;51.332;6.610;2023-07-24T01:52:07;100278.56;;;21.81;75.34
4705;BME280;2366;51.332;6.610;2023-07-24T01:54:33;100281.66;;;21.78;75.39
4705;BME280;2366;51.332;6.610;2023-07-24T01:56:58;100271.84;;;21.77;75.37
4705;BME280;2366;51.332;6.610;2023-07-24T01:59:23;100265.47;;;21.78;75.18
4705;BME280;2366;51.332;6.610;2023-07-24T02:01:49;100262.75;;;21.78;75.54
4705;BME280;2366;51.332;6.610;2023-07-24T02:04:14;100261.72;;;21.79;75.74
4705;BME280;2366;51.332;6.610;2023-07-24T02:06:39;100246.03;;;21.82;75.63
4705;BME280;2366;51.332;6.610;2023-07-24T02:09:05;100247.69;;;21.83;75.21
4705;BME280;2366;51.332;6.610;2023-07-24T02:11:30;100251.22;;;21.84;75.60
4705;BME280;2366;51.332;6.610;2023-07-24T02:13:55;100240.09;;;21.87;75.17
4705;BME280;2366;51.332;6.610;2023-07-24T02:16:21;100251.56;;;21.89;75.30
4705;BME280;2366;51.332;6.610;2023-07-24T02:18:46;100252.03;;;21.92;75.12
4705;BME280;2366;51.332;6.610;2023-07-24T02:21:12;100253.03;;;21.91;74.07
4705;BME280;2366;51.332;6.610;2023-07-24T02:23:37;100242.25;;;21.91;73.76
4705;BME280;2366;51.332;6.610;2023-07-24T02:26:02;100244.78;;;21.93;75.35
4705;BME280;2366;51.332;6.610;2023-07-24T02:28:28;100243.41;;;21.97;75.19
4705;BME280;2366;51.332;6.610;2023-07-24T02:30:53;100232.75;;;22.04;75.48
4705;BME280;2366;51.332;6.610;2023-07-24T02:33:22;100235.44;;;22.04;74.90
4705;BME280;2366;51.332;6.610;2023-07-24T02:35:50;100237.94;;;22.05;75.25
4705;BME280;2366;51.332;6.610;2023-07-24T02:38:16;100230.50;;;22.07;74.32
4705;BME280;2366;51.332;6.610;2023-07-24T02:40:44;100238.97;;;22.04;75.06
4705;BME280;2366;51.332;6.610;2023-07-24T02:43:09;100227.78;;;22.07;75.20
4705;BME280;2366;51.332;6.610;2023-07-24T02:45:35;100230.97;;;22.11;73.95
4705;BME280;2366;51.332;6.610;2023-07-24T02:48:00;100230.50;;;22.07;74.94
4705;BME280;2366;51.332;6.610;2023-07-24T02:50:27;100220.56;;;22.08;75.09
4705;BME280;2366;51.332;6.610;2023-07-24T02:52:52;100228.66;;;22.08;74.40
4705;BME280;2366;51.332;6.610;2023-07-24T02:55:18;100230.88;;;22.04;74.79
4705;BME280;2366;51.332;6.610;2023-07-24T02:57:43;100229.16;;;22.03;75.14
4705;BME280;2366;51.332;6.610;2023-07-24T03:00:09;100235.59;;;22.02;75.27
4705;BME280;2366;51.332;6.610;2023-07-24T03:02:34;100240.72;;;21.97;75.53
4705;BME280;2366;51.332;6.610;2023-07-24T03:05:00;100243.03;;;22.00;75.70
4705;BME280;2366;51.332;6.610;2023-07-24T03:07:25;100239.38;;;21.93;75.74
4705;BME280;2366;51.332;6.610;2023-07-24T03:09:50;100224.25;;;21.84;76.11
4705;BME280;2366;51.332;6.610;2023-07-24T03:12:16;100207.34;;;21.90;76.39
4705;BME280;2366;51.332;6.610;2023-07-24T03:14:41;100208.88;;;21.92;76.17
4705;BME280;2366;51.332;6.610;2023-07-24T03:17:07;100220.31;;;21.94;76.00
4705;BME280;2366;51.332;6.610;2023-07-24T03:19:32;100220.13;;;21.96;75.96
4705;BME280;2366;51.332;6.610;2023-07-24T03:21:57;100222.16;;;21.94;75.69
4705;BME280;2366;51.332;6.610;2023-07-24T03:24:23;100222.16;;;21.94;76.17
4705;BME280;2366;51.332;6.610;2023-07-24T03:26:48;100223.38;;;21.91;76.10
4705;BME280;2366;51.332;6.610;2023-07-24T03:29:14;100215.78;;;21.95;76.37
4705;BME280;2366;51.332;6.610;2023-07-24T03:31:39;100215.41;;;21.98;76.25
4705;BME280;2366;51.332;6.610;2023-07-24T03:34:04;100209.00;;;21.99;76.21
4705;BME280;2366;51.332;6.610;2023-07-24T03:36:30;100212.53;;;22.00;76.24
4705;BME280;2366;51.332;6.610;2023-07-24T03:38:55;100205.63;;;21.97;76.43
4705;BME280;2366;51.332;6.610;2023-07-24T03:41:20;100206.47;;;21.98;76.03
4705;BME280;2366;51.332;6.610;2023-07-24T03:43:46;100202.38;;;22.02;76.27
4705;BME280;2366;51.332;6.610;2023-07-24T03:46:11;100203.22;;;22.02;76.48
4705;BME280;2366;51.332;6.610;2023-07-24T03:48:36;100191.06;;;22.06;76.30
4705;BME280;2366;51.332;6.610;2023-07-24T03:51:02;100187.69;;;22.04;76.30
4705;BME280;2366;51.332;6.610;2023-07-24T03:53:27;100185.81;;;22.05;76.09
4705;BME280;2366;51.332;6.610;2023-07-24T03:55:53;100181.63;;;22.02;76.10
4705;BME280;2366;51.332;6.610;2023-07-24T03:58:19;100187.22;;;22.01;76.12
4705;BME280;2366;51.332;6.610;2023-07-24T04:00:44;100189.44;;;21.97;76.56
4705;BME280;2366;51.332;6.610;2023-07-24T04:03:09;100181.16;;;21.99;76.48
4705;BME280;2366;51.332;6.610;2023-07-24T04:05:35;100177.63;;;21.98;76.32
4705;BME280;2366;51.332;6.610;2023-07-24T04:08:01;100182.34;;;21.96;76.90
4705;BME280;2366;51.332;6.610;2023-07-24T04:10:26;100188.78;;;21.95;76.70
4705;BME280;2366;51.332;6.610;2023-07-24T04:12:52;100178.66;;;21.97;75.86
4705;BME280;2366;51.332;6.610;2023-07-24T04:15:18;100179.47;;;21.98;77.04
4705;BME280;2366;51.332;6.610;2023-07-24T04:17:43;100178.09;;;22.02;75.30
4705;BME280;2366;51.332;6.610;2023-07-24T04:20:09;100166.88;;;21.90;76.38
4705;BME280;2366;51.332;6.610;2023-07-24T04:22:35;100171.72;;;21.80;76.96
4705;BME280;2366;51.332;6.610;2023-07-24T04:25:00;100155.69;;;21.78;77.50
4705;BME280;2366;51.332;6.610;2023-07-24T04:27:25;100172.75;;;21.70;77.63
4705;BME280;2366;51.332;6.610;2023-07-24T04:29:51;100166.00;;;21.74;76.97
4705;BME280;2366;51.332;6.610;2023-07-24T04:32:16;100176.53;;;21.61;78.05
4705;BME280;2366;51.332;6.610;2023-07-24T04:34:41;100171.75;;;21.71;78.37
4705;BME280;2366;51.332;6.610;2023-07-24T04:37:07;100171.38;;;21.74;78.23
4705;BME280;2366;51.332;6.610;2023-07-24T04:39:32;100175.25;;;21.80;78.44
4705;BME280;2366;51.332;6.610;2023-07-24T04:41:59;100173.97;;;21.91;78.00
4705;BME280;2366;51.332;6.610;2023-07-24T04:44:24;100177.03;;;21.88;77.90
4705;BME280;2366;51.332;6.610;2023-07-24T04:46:49;100179.31;;;21.99;77.79
4705;BME280;2366;51.332;6.610;2023-07-24T04:49:15;100190.56;;;22.03;78.03
4705;BME280;2366;51.332;6.610;2023-07-24T04:51:41;100185.47;;;22.08;77.52
4705;BME280;2366;51.332;6.610;2023-07-24T04:54:06;100192.47;;;22.17;77.66
4705;BME280;2366;51.332;6.610;2023-07-24T04:56:32;100195.84;;;22.19;77.40
4705;BME280;2366;51.332;6.610;2023-07-24T04:58:57;100201.00;;;22.29;77.45
4705;BME280;2366;51.332;6.610;2023-07-24T05:01:24;100193.78;;;22.21;76.57
4705;BME280;2366;51.332;6.610;2023-07-24T05:03:49;100200.03;;;22.22;76.47
4705;BME280;2366;51.332;6.610;2023-07-24T05:06:15;100199.44;;;22.11;77.08
4705;BME280;2366;51.332;6.610;2023-07-24T05:08:40;100205.50;;;22.13;77.06
4705;BME280;2366;51.332;6.610;2023-07-24T05:11:05;100204.94;;;22.18;76.63
4705;BME280;2366;51.332;6.610;2023-07-24T05:13:31;100206.53;;;22.12;76.58
4705;BME280;2366;51.332;6.610;2023-07-24T05:15:56;100196.38;;;22.14;77.12
4705;BME280;2366;51.332;6.610;2023-07-24T05:18:21;100191.66;;;22.17;77.35
4705;BME280;2366;51.332;6.610;2023-07-24T05:20:47;100198.72;;;22.18;77.01
4705;BME280;2366;51.332;6.610;2023-07-24T05:23:14;100213.84;;;22.27;77.15
4705;BME280;2366;51.332;6.610;2023-07-24T05:25:39;100227.81;;;22.30;77.35
4705;BME280;2366;51.332;6.610;2023-07-24T05:28:05;100226.31;;;22.28;76.79
4705;BME280;2366;51.332;6.610;2023-07-24T05:30:30;100213.78;;;22.35;75.23
4705;BME280;2366;51.332;6.610;2023-07-24T05:32:56;100226.91;;;22.38;75.56
4705;BME280;2366;51.332;6.610;2023-07-24T05:35:22;100220.09;;;22.42;75.35
4705;BME280;2366;51.332;6.610;2023-07-24T05:37:47;100218.38;;;22.49;76.29
4705;BME280;2366;51.332;6.610;2023-07-24T05:40:13;100225.47;;;22.65;76.59
4705;BME280;2366;51.332;6.610;2023-07-24T05:42:38;100220.16;;;22.72;75.88
4705;BME280;2366;51.332;6.610;2023-07-24T05:45:07;100216.44;;;22.58;75.43
4705;BME280;2366;51.332;6.610;2023-07-24T05:47:33;100214.28;;;22.68;75.87
4705;BME280;2366;51.332;6.610;2023-07-24T05:49:59;100213.66;;;22.66;75.12
4705;BME280;2366;51.332;6.610;2023-07-24T05:52:24;100207.13;;;22.61;74.28
4705;BME280;2366;51.332;6.610;2023-07-24T05:54:49;100209.91;;;22.67;75.15
4705;BME280;2366;51.332;6.610;2023-07-24T05:57:15;100203.75;;;22.59;75.08
4705;BME280;2366;51.332;6.610;2023-07-24T05:59:40;100202.72;;;22.74;75.69
4705;BME280;2366;51.332;6.610;2023-07-24T06:02:06;100196.97;;;22.92;74.82
4705;BME280;2366;51.332;6.610;2023-07-24T06:04:32;100196.22;;;22.98;74.31
4705;BME280;2366;51.332;6.610;2023-07-24T06:06:58;100200.63;;;23.14;74.67
4705;BME280;2366;51.332;6.610;2023-07-24T06:09:23;100203.09;;;23.31;73.07
4705;BME280;2366;51.332;6.610;2023-07-24T06:11:48;100205.81;;;23.67;72.18
4705;BME280;2366;51.332;6.610;2023-07-24T06:14:14;100193.84;;;23.76;71.00
4705;BME280;2366;51.332;6.610;2023-07-24T06:16:39;100208.34;;;23.69;71.63
4705;BME280;2366;51.332;6.610;2023-07-24T06:19:05;100207.09;;;24.08;69.33
4705;BME280;2366;51.332;6.610;2023-07-24T06:21:30;100215.31;;;23.99;68.23
4705;BME280;2366;51.332;6.610;2023-07-24T06:23:55;100211.22;;;23.82;69.62
4705;BME280;2366;51.332;6.610;2023-07-24T06:26:21;100216.22;;;24.07;69.86
4705;BME280;2366;51.332;6.610;2023-07-24T06:28:47;100222.22;;;24.02;69.62
4705;BME280;2366;51.332;6.610;2023-07-24T06:31:12;100216.22;;;23.85;69.36
4705;BME280;2366;51.332;6.610;2023-07-24T06:33:38;100223.31;;;24.08;68.28
4705;BME280;2366;51.332;6.610;2023-07-24T06:36:03;100228.53;;;24.09;69.51
4705;BME280;2366;51.332;6.610;2023-07-24T06:38:29;100235.22;;;24.35;68.37
4705;BME280;2366;51.332;6.610;2023-07-24T06:40:54;100226.66;;;24.31;66.72
4705;BME280;2366;51.332;6.610;2023-07-24T06:43:20;100227.50;;;23.89;68.17
4705;BME280;2366;51.332;6.610;2023-07-24T06:45:45;100217.06;;;23.86;68.39
4705;BME280;2366;51.332;6.610;2023-07-24T06:48:10;100225.56;;;23.83;67.36
4705;BME280;2366;51.332;6.610;2023-07-24T06:50:36;100227.53;;;23.74;68.35
4705;BME280;2366;51.332;6.610;2023-07-24T06:53:01;100226.16;;;23.63;67.68
4705;BME280;2366;51.332;6.610;2023-07-24T06:55:26;100226.09;;;23.56;69.53
4705;BME280;2366;51.332;6.610;2023-07-24T06:57:52;100231.13;;;23.60;69.52
4705;BME280;2366;51.332;6.610;2023-07-24T07:00:17;100223.47;;;23.48;69.20
4705;BME280;2366;51.332;6.610;2023-07-24T07:02:43;100235.34;;;23.47;69.67
4705;BME280;2366;51.332;6.610;2023-07-24T07:05:08;100231.16;;;23.45;69.70
4705;BME280;2366;51.332;6.610;2023-07-24T07:07:33;100227.75;;;23.21;70.69
4705;BME280;2366;51.332;6.610;2023-07-24T07:09:59;100226.25;;;23.33;69.34
4705;BME280;2366;51.332;6.610;2023-07-24T07:12:24;100224.56;;;23.32;70.24
4705;BME280;2366;51.332;6.610;2023-07-24T07:14:49;100229.78;;;23.34;70.49
4705;BME280;2366;51.332;6.610;2023-07-24T07:17:15;100233.31;;;23.34;70.59
4705;BME280;2366;51.332;6.610;2023-07-24T07:19:40;100232.09;;;23.37;70.24
4705;BME280;2366;51.332;6.610;2023-07-24T07:22:06;100231.34;;;23.43;70.61
4705;BME280;2366;51.332;6.610;2023-07-24T07:24:31;100234.66;;;23.60;70.18
4705;BME280;2366;51.332;6.610;2023-07-24T07:26:56;100231.56;;;23.63;69.75
4705;BME280;2366;51.332;6.610;2023-07-24T07:29:22;100233.53;;;23.54;70.04
4705;BME280;2366;51.332;6.610;2023-07-24T07:31:47;100233.19;;;23.57;70.61
4705;BME280;2366;51.332;6.610;2023-07-24T07:34:13;100238.19;;;23.75;70.37
4705;BME280;2366;51.332;6.610;2023-07-24T07:36:38;100233.88;;;23.81;70.10
4705;BME280;2366;51.332;6.610;2023-07-24T07:39:03;100239.50;;;23.80;69.85
4705;BME280;2366;51.332;6.610;2023-07-24T07:41:29;100233.75;;;23.74;69.96
4705;BME280;2366;51.332;6.610;2023-07-24T07:43:54;100231.06;;;23.74;70.39
4705;BME280;2366;51.332;6.610;2023-07-24T07:46:20;100233.09;;;23.87;71.13
4705;BME280;2366;51.332;6.610;2023-07-24T07:48:45;100232.09;;;24.10;70.79
4705;BME280;2366;51.332;6.610;2023-07-24T07:51:14;100227.50;;;24.32;70.29
4705;BME280;2366;51.332;6.610;2023-07-24T07:53:40;100227.91;;;24.57;69.69
4705;BME280;2366;51.332;6.610;2023-07-24T07:56:05;100226.94;;;24.65;68.84
4705;BME280;2366;51.332;6.610;2023-07-24T07:58:31;100227.63;;;24.73;68.53
4705;BME280;2366;51.332;6.610;2023-07-24T08:00:56;100237.53;;;24.59;68.01
4705;BME280;2366;51.332;6.610;2023-07-24T08:03:22;100227.88;;;24.50;68.18
4705;BME280;2366;51.332;6.610;2023-07-24T08:05:47;100223.09;;;24.31;68.47
4705;BME280;2366;51.332;6.610;2023-07-24T08:08:13;100222.09;;;24.10;68.90
4705;BME280;2366;51.332;6.610;2023-07-24T08:10:39;100216.28;;;24.13;69.77
4705;BME280;2366;51.332;6.610;2023-07-24T08:13:05;100210.06;;;24.41;69.97
4705;BME280;2366;51.332;6.610;2023-07-24T08:15:34;100211.06;;;24.90;69.54
4705;BME280;2366;51.332;6.610;2023-07-24T08:18:00;100207.41;;;25.17;68.26
4705;BME280;2366;51.332;6.610;2023-07-24T08:20:25;100214.38;;;25.20;66.92
4705;BME280;2366;51.332;6.610;2023-07-24T08:22:51;100223.28;;;25.69;67.21
4705;BME280;2366;51.332;6.610;2023-07-24T08:25:16;100213.56;;;26.88;64.04
4705;BME280;2366;51.332;6.610;2023-07-24T08:27:43;100214.44;;;27.78;61.55
4705;BME280;2366;51.332;6.610;2023-07-24T08:30:08;100201.06;;;28.34;60.19
4705;BME280;2366;51.332;6.610;2023-07-24T08:32:34;100195.25;;;28.92;56.97
4705;BME280;2366;51.332;6.610;2023-07-24T08:34:59;100190.97;;;28.84;55.98
4705;BME280;2366;51.332;6.610;2023-07-24T08:37:24;100191.28;;;29.13;55.30
4705;BME280;2366;51.332;6.610;2023-07-24T08:39:50;100201.88;;;29.70;53.99
4705;BME280;2366;51.332;6.610;2023-07-24T08:42:15;100198.84;;;29.60;53.14
4705;BME280;2366;51.332;6.610;2023-07-24T08:44:41;100185.53;;;29.52;53.83
4705;BME280;2366;51.332;6.610;2023-07-24T08:47:11;100201.47;;;29.66;53.00
4705;BME280;2366;51.332;6.610;2023-07-24T08:49:38;100190.19;;;29.63;51.61
4705;BME280;2366;51.332;6.610;2023-07-24T08:52:06;100189.84;;;29.11;52.39
4705;BME280;2366;51.332;6.610;2023-07-24T08:54:32;100183.13;;;28.70;53.52
4705;BME280;2366;51.332;6.610;2023-07-24T08:57:01;100189.78;;;28.05;55.05
4705;BME280;2366;51.332;6.610;2023-07-24T08:59:27;100182.00;;;27.38;56.30
4705;BME280;2366;51.332;6.610;2023-07-24T09:01:52;100179.78;;;27.22;56.60
4705;BME280;2366;51.332;6.610;2023-07-24T09:04:18;100174.97;;;27.17;55.41
4705;BME280;2366;51.332;6.610;2023-07-24T09:06:43;100183.34;;;27.16;57.05
4705;BME280;2366;51.332;6.610;2023-07-24T09:09:14;100196.94;;;27.22;56.75
4705;BME280;2366;51.332;6.610;2023-07-24T09:12:06;100194.63;;;27.13;56.28
4705;BME280;2366;51.332;6.610;2023-07-24T09:14:31;100202.44;;;27.02;55.96
4705;BME280;2366;51.332;6.610;2023-07-24T09:17:04;100195.38;;;26.75;56.91
4705;BME280;2366;51.332;6.610;2023-07-24T09:19:30;100194.06;;;26.97;56.13
4705;BME280;2366;51.332;6.610;2023-07-24T09:21:55;100186.38;;;26.88;54.63
4705;BME280;2366;51.332;6.610;2023-07-24T09:24:21;100187.66;;;26.45;55.86
4705;BME280;2366;51.332;6.610;2023-07-24T09:26:55;100189.34;;;26.46;57.08
4705;BME280;2366;51.332;6.610;2023-07-24T09:29:21;100179.72;;;26.70;56.13
4705;BME280;2366;51.332;6.610;2023-07-24T09:31:46;100171.72;;;26.82;56.15
4705;BME280;2366;51.332;6.610;2023-07-24T09:34:18;100161.69;;;26.89;54.42
4705;BME280;2366;51.332;6.610;2023-07-24T09:36:44;100170.69;;;26.83;56.22
4705;BME280;2366;51.332;6.610;2023-07-24T09:39:10;100176.78;;;26.65;56.85
4705;BME280;2366;51.332;6.610;2023-07-24T09:41:37;100155.69;;;26.47;57.44
4705;BME280;2366;51.332;6.610;2023-07-24T09:44:03;100163.00;;;26.60;57.45
4705;BME280;2366;51.332;6.610;2023-07-24T09:46:29;100154.63;;;26.68;57.18
4705;BME280;2366;51.332;6.610;2023-07-24T09:48:56;100151.66;;;26.83;56.48
4705;BME280;2366;51.332;6.610;2023-07-24T09:51:22;100150.50;;;27.11;56.38
4705;BME280;2366;51.332;6.610;2023-07-24T09:56:33;100148.72;;;27.36;54.72
4705;BME280;2366;51.332;6.610;2023-07-24T09:59:00;100152.94;;;28.02;54.15
4705;BME280;2366;51.332;6.610;2023-07-24T10:01:28;100146.50;;;28.40;51.71
4705;BME280;2366;51.332;6.610;2023-07-24T10:03:56;100133.28;;;28.19;52.37
4705;BME280;2366;51.332;6.610;2023-07-24T10:06:22;100133.91;;;27.96;52.42
4705;BME280;2366;51.332;6.610;2023-07-24T10:08:48;100121.84;;;27.85;52.21
4705;BME280;2366;51.332;6.610;2023-07-24T10:11:14;100120.81;;;27.48;52.70
4705;BME280;2366;51.332;6.610;2023-07-24T10:13:43;100116.19;;;27.10;54.02
4705;BME280;2366;51.332;6.610;2023-07-24T10:16:09;100116.31;;;26.83;55.76
4705;BME280;2366;51.332;6.610;2023-07-24T10:18:35;100113.44;;;26.71;57.23
4705;BME280;2366;51.332;6.610;2023-07-24T10:21:08;100112.44;;;26.32;58.65
4705;BME280;2366;51.332;6.610;2023-07-24T10:23:34;100115.78;;;25.61;60.68
4705;BME280;2366;51.332;6.610;2023-07-24T10:26:04;100129.81;;;25.10;63.02
4705;BME280;2366;51.332;6.610;2023-07-24T10:28:32;100108.47;;;24.93;64.64
4705;BME280;2366;51.332;6.610;2023-07-24T10:30:58;100116.81;;;24.92;65.26
4705;BME280;2366;51.332;6.610;2023-07-24T10:33:23;100125.97;;;24.91;66.18
4705;BME280;2366;51.332;6.610;2023-07-24T10:36:04;100119.31;;;24.93;65.76
4705;BME280;2366;51.332;6.610;2023-07-24T10:38:56;100121.50;;;24.70;67.43
4705;BME280;2366;51.332;6.610;2023-07-24T10:41:22;100109.56;;;24.57;68.05
4705;BME280;2366;51.332;6.610;2023-07-24T10:43:49;100105.34;;;24.48;68.61
4705;BME280;2366;51.332;6.610;2023-07-24T10:46:17;100104.56;;;24.61;67.57
4705;BME280;2366;51.332;6.610;2023-07-24T10:48:44;100109.56;;;24.57;66.79
4705;BME280;2366;51.332;6.610;2023-07-24T10:51:10;100115.69;;;24.38;66.65
4705;BME280;2366;51.332;6.610;2023-07-24T10:53:37;100114.59;;;24.32;67.05
4705;BME280;2366;51.332;6.610;2023-07-24T10:56:06;100122.03;;;24.24;66.51
4705;BME280;2366;51.332;6.610;2023-07-24T10:58:32;100119.72;;;24.21;66.62
4705;BME280;2366;51.332;6.610;2023-07-24T11:00:57;100110.97;;;24.18;66.28
4705;BME280;2366;51.332;6.610;2023-07-24T11:03:24;100102.97;;;24.10;66.79
4705;BME280;2366;51.332;6.610;2023-07-24T11:05:50;100105.59;;;23.97;67.07
4705;BME280;2366;51.332;6.610;2023-07-24T11:08:17;100120.09;;;23.89;67.58
4705;BME280;2366;51.332;6.610;2023-07-24T11:10:57;100096.09;;;23.80;67.83
4705;BME280;2366;51.332;6.610;2023-07-24T11:13:27;100106.44;;;23.76;68.15
4705;BME280;2366;51.332;6.610;2023-07-24T11:15:53;100097.09;;;23.78;68.22
4705;BME280;2366;51.332;6.610;2023-07-24T11:18:20;100084.31;;;23.72;68.49
4705;BME280;2366;51.332;6.610;2023-07-24T11:23:13;100118.59;;;23.65;69.04
4705;BME280;2366;51.332;6.610;2023-07-24T11:25:39;100115.38;;;23.55;69.53
4705;BME280;2366;51.332;6.610;2023-07-24T11:28:10;100115.00;;;23.58;69.36
4705;BME280;2366;51.332;6.610;2023-07-24T11:30:36;100113.13;;;23.58;69.81
4705;BME280;2366;51.332;6.610;2023-07-24T11:33:03;100105.47;;;23.62;69.80
4705;BME280;2366;51.332;6.610;2023-07-24T11:35:30;100103.19;;;23.66;69.78
4705;BME280;2366;51.332;6.610;2023-07-24T11:37:55;100099.06;;;23.70;69.65
4705;BME280;2366;51.332;6.610;2023-07-24T11:40:21;100106.59;;;23.74;70.18
4705;BME280;2366;51.332;6.610;2023-07-24T11:42:48;100105.06;;;24.08;69.83
4705;BME280;2366;51.332;6.610;2023-07-24T11:45:14;100095.94;;;24.44;69.12
4705;BME280;2366;51.332;6.610;2023-07-24T11:47:47;100093.41;;;24.77;67.93
4705;BME280;2366;51.332;6.610;2023-07-24T11:50:13;100078.31;;;25.10;67.60
4705;BME280;2366;51.332;6.610;2023-07-24T11:52:43;100066.91;;;25.48;67.05
4705;BME280;2366;51.332;6.610;2023-07-24T11:55:10;100080.28;;;25.56;65.73
4705;BME280;2366;51.332;6.610;2023-07-24T11:57:35;100080.72;;;25.73;66.09
4705;BME280;2366;51.332;6.610;2023-07-24T12:00:01;100084.53;;;25.92;67.02
4705;BME280;2366;51.332;6.610;2023-07-24T12:02:28;100079.25;;;26.23;66.38
4705;BME280;2366;51.332;6.610;2023-07-24T12:04:55;100092.94;;;26.69;65.43
4705;BME280;2366;51.332;6.610;2023-07-24T12:07:23;100109.22;;;26.75;64.03
4705;BME280;2366;51.332;6.610;2023-07-24T12:09:52;100112.88;;;26.36;62.45
4705;BME280;2366;51.332;6.610;2023-07-24T12:12:18;100124.16;;;26.26;64.14
4705;BME280;2366;51.332;6.610;2023-07-24T12:14:43;100129.31;;;26.54;63.53
4705;BME280;2366;51.332;6.610;2023-07-24T12:17:08;100133.31;;;26.58;63.11
4705;BME280;2366;51.332;6.610;2023-07-24T12:19:37;100144.63;;;26.49;62.33
4705;BME280;2366;51.332;6.610;2023-07-24T12:22:03;100150.47;;;26.59;62.44
4705;BME280;2366;51.332;6.610;2023-07-24T12:24:29;100135.78;;;26.73;61.02
4705;BME280;2366;51.332;6.610;2023-07-24T12:26:54;100137.69;;;26.66;60.17
4705;BME280;2366;51.332;6.610;2023-07-24T12:29:20;100133.53;;;26.37;62.36
4705;BME280;2366;51.332;6.610;2023-07-24T12:31:45;100137.75;;;26.33;63.04
4705;BME280;2366;51.332;6.610;2023-07-24T12:34:10;100121.59;;;26.51;62.39
4705;BME280;2366;51.332;6.610;2023-07-24T12:36:36;100124.88;;;26.87;60.74
4705;BME280;2366;51.332;6.610;2023-07-24T12:39:01;100112.16;;;27.19;58.93
4705;BME280;2366;51.332;6.610;2023-07-24T12:41:27;100113.44;;;27.16;60.42
4705;BME280;2366;51.332;6.610;2023-07-24T12:43:52;100107.75;;;27.31;59.87
4705;BME280;2366;51.332;6.610;2023-07-24T12:46:18;100087.25;;;27.29;59.67
4705;BME280;2366;51.332;6.610;2023-07-24T12:48:43;100092.69;;;26.83;60.10
4705;BME280;2366;51.332;6.610;2023-07-24T12:51:09;100104.66;;;26.69;60.42
4705;BME280;2366;51.332;6.610;2023-07-24T12:53:34;100101.09;;;26.69;61.01
4705;BME280;2366;51.332;6.610;2023-07-24T12:56:00;100087.69;;;26.74;60.87
4705;BME280;2366;51.332;6.610;2023-07-24T12:58:25;100086.59;;;26.88;61.06
4705;BME280;2366;51.332;6.610;2023-07-24T13:00:50;100080.88;;;27.03;60.30
4705;BME280;2366;51.332;6.610;2023-07-24T13:03:16;100070.34;;;27.20;60.27
4705;BME280;2366;51.332;6.610;2023-07-24T13:05:41;100059.94;;;27.74;59.14
4705;BME280;2366;51.332;6.610;2023-07-24T13:08:07;100064.34;;;28.18;57.14
4705;BME280;2366;51.332;6.610;2023-07-24T13:10:32;100070.09;;;28.10;56.22
4705;BME280;2366;51.332;6.610;2023-07-24T13:12:57;100067.34;;;27.92;57.17
4705;BME280;2366;51.332;6.610;2023-07-24T13:15:23;100057.34;;;27.85;56.26